sensor_id;sensor_type;location;lat;lon;timestamp;P1;durP1;ratioP1;P2;durP2;ratioP2
18435;SDS011;9346;52.006;4.720;2023-08-21T00:00:53;5.30;;;1.97;;
18435;SDS011;9346;52.006;4.720;2023-08-21T00:03:20;3.03;;;2.00;;
18435;SDS011;9346;52.006;4.720;2023-08-21T00:05:47;5.13;;;2.37;;
18435;SDS011;9346;52.006;4.720;2023-08-21T00:08:14;2.97;;;1.97;;
18435;SDS011;9346;52.006;4.720;2023-08-21T00:10:41;4.33;;;1.87;;
18435;SDS011;9346;52.006;4.720;2023-08-21T00:13:08;3.10;;;1.80;;
18435;SDS011;9346;52.006;4.720;2023-08-21T00:15:37;2.03;;;1.73;;
18435;SDS011;9346;52.006;4.720;2023-08-21T00:18:04;2.73;;;1.93;;
18435;SDS011;9346;52.006;4.720;2023-08-21T00:20:31;4.13;;;2.20;;
18435;SDS011;9346;52.006;4.720;2023-08-21T00:22:58;3.47;;;2.27;;
18435;SDS011;9346;52.006;4.720;2023-08-21T00:25:25;4.13;;;2.10;;
18435;SDS011;9346;52.006;4.720;2023-08-21T00:27:52;2.57;;;1.70;;
18435;SDS011;9346;52.006;4.720;2023-08-21T00:30:19;3.50;;;1.70;;
18435;SDS011;9346;52.006;4.720;2023-08-21T00:32:48;6.53;;;2.73;;
18435;SDS011;9346;52.006;4.720;2023-08-21T00:35:15;2.47;;;1.83;;
18435;SDS011;9346;52.006;4.720;2023-08-21T00:37:42;3.90;;;2.40;;
18435;SDS011;9346;52.006;4.720;2023-08-21T00:40:09;3.63;;;1.73;;
18435;SDS011;9346;52.006;4.720;2023-08-21T00:42:38;4.53;;;2.03;;
18435;SDS011;9346;52.006;4.720;2023-08-21T00:45:05;3.20;;;2.20;;
18435;SDS011;9346;52.006;4.720;2023-08-21T00:47:33;3.90;;;2.30;;
18435;SDS011;9346;52.006;4.720;2023-08-21T00:50:02;2.00;;;1.90;;
18435;SDS011;9346;52.006;4.720;2023-08-21T00:52:32;2.70;;;1.80;;
18435;SDS011;9346;52.006;4.720;2023-08-21T00:55:00;5.20;;;2.37;;
18435;SDS011;9346;52.006;4.720;2023-08-21T00:57:28;3.33;;;2.20;;
18435;SDS011;9346;52.006;4.720;2023-08-21T00:59:56;2.20;;;1.97;;
18435;SDS011;9346;52.006;4.720;2023-08-21T01:02:23;4.60;;;2.40;;
18435;SDS011;9346;52.006;4.720;2023-08-21T01:04:50;2.30;;;2.03;;
18435;SDS011;9346;52.006;4.720;2023-08-21T01:07:18;3.70;;;2.37;;
18435;SDS011;9346;52.006;4.720;2023-08-21T01:09:47;2.87;;;1.90;;
18435;SDS011;9346;52.006;4.720;2023-08-21T01:12:21;4.10;;;2.20;;
18435;SDS011;9346;52.006;4.720;2023-08-21T01:14:54;4.47;;;2.83;;
18435;SDS011;9346;52.006;4.720;2023-08-21T01:17:26;2.73;;;2.13;;
18435;SDS011;9346;52.006;4.720;2023-08-21T01:19:55;4.53;;;2.10;;
18435;SDS011;9346;52.006;4.720;2023-08-21T01:22:26;4.00;;;2.33;;
18435;SDS011;9346;52.006;4.720;2023-08-21T01:24:55;2.40;;;2.00;;
18435;SDS011;9346;52.006;4.720;2023-08-21T01:27:23;3.93;;;2.40;;
18435;SDS011;9346;52.006;4.720;2023-08-21T01:29:50;3.60;;;2.67;;
18435;SDS011;9346;52.006;4.720;2023-08-21T01:32:20;3.60;;;2.23;;
18435;SDS011;9346;52.006;4.720;2023-08-21T01:34:53;3.30;;;2.20;;
18435;SDS011;9346;52.006;4.720;2023-08-21T01:37:22;3.33;;;2.33;;
18435;SDS011;9346;52.006;4.720;2023-08-21T01:39:51;2.73;;;1.97;;
18435;SDS011;9346;52.006;4.720;2023-08-21T01:42:21;3.20;;;2.47;;
18435;SDS011;9346;52.006;4.720;2023-08-21T01:44:48;3.07;;;2.37;;
18435;SDS011;9346;52.006;4.720;2023-08-21T01:47:15;4.07;;;2.23;;
18435;SDS011;9346;52.006;4.720;2023-08-21T01:49:42;3.27;;;2.33;;
18435;SDS011;9346;52.006;4.720;2023-08-21T01:52:09;4.03;;;2.40;;
18435;SDS011;9346;52.006;4.720;2023-08-21T01:54:36;3.83;;;2.27;;
18435;SDS011;9346;52.006;4.720;2023-08-21T01:57:03;6.80;;;2.30;;
18435;SDS011;9346;52.006;4.720;2023-08-21T01:59:32;3.53;;;2.13;;
18435;SDS011;9346;52.006;4.720;2023-08-21T02:01:59;4.10;;;2.43;;
18435;SDS011;9346;52.006;4.720;2023-08-21T02:04:25;3.67;;;2.20;;
18435;SDS011;9346;52.006;4.720;2023-08-21T02:06:52;4.70;;;2.50;;
18435;SDS011;9346;52.006;4.720;2023-08-21T02:09:19;3.43;;;1.97;;
18435;SDS011;9346;52.006;4.720;2023-08-21T02:11:46;6.40;;;2.30;;
18435;SDS011;9346;52.006;4.720;2023-08-21T02:14:13;2.97;;;1.93;;
18435;SDS011;9346;52.006;4.720;2023-08-21T02:16:42;4.53;;;1.93;;
18435;SDS011;9346;52.006;4.720;2023-08-21T02:19:09;4.20;;;2.17;;
18435;SDS011;9346;52.006;4.720;2023-08-21T02:21:36;3.43;;;2.50;;
18435;SDS011;9346;52.006;4.720;2023-08-21T02:24:05;4.37;;;2.03;;
18435;SDS011;9346;52.006;4.720;2023-08-21T02:26:32;4.03;;;2.53;;
18435;SDS011;9346;52.006;4.720;2023-08-21T02:28:58;3.07;;;2.13;;
18435;SDS011;9346;52.006;4.720;2023-08-21T02:31:26;3.10;;;2.10;;
18435;SDS011;9346;52.006;4.720;2023-08-21T02:33:54;2.77;;;1.87;;
18435;SDS011;9346;52.006;4.720;2023-08-21T02:36:22;2.13;;;1.43;;
18435;SDS011;9346;52.006;4.720;2023-08-21T02:38:49;2.03;;;1.77;;
18435;SDS011;9346;52.006;4.720;2023-08-21T02:41:16;2.43;;;1.50;;
18435;SDS011;9346;52.006;4.720;2023-08-21T02:43:44;1.80;;;1.43;;
18435;SDS011;9346;52.006;4.720;2023-08-21T02:46:10;4.10;;;1.63;;
18435;SDS011;9346;52.006;4.720;2023-08-21T02:48:37;1.97;;;1.37;;
18435;SDS011;9346;52.006;4.720;2023-08-21T02:51:06;5.00;;;1.80;;
18435;SDS011;9346;52.006;4.720;2023-08-21T02:53:33;2.07;;;1.77;;
18435;SDS011;9346;52.006;4.720;2023-08-21T02:56:00;3.33;;;1.90;;
18435;SDS011;9346;52.006;4.720;2023-08-21T02:58:27;5.70;;;2.17;;
18435;SDS011;9346;52.006;4.720;2023-08-21T03:00:54;2.80;;;1.67;;
18435;SDS011;9346;52.006;4.720;2023-08-21T03:03:21;2.77;;;1.90;;
18435;SDS011;9346;52.006;4.720;2023-08-21T03:05:48;1.67;;;1.57;;
18435;SDS011;9346;52.006;4.720;2023-08-21T03:08:16;3.87;;;1.87;;
18435;SDS011;9346;52.006;4.720;2023-08-21T03:10:43;2.50;;;1.87;;
18435;SDS011;9346;52.006;4.720;2023-08-21T03:13:10;2.60;;;1.80;;
18435;SDS011;9346;52.006;4.720;2023-08-21T03:15:37;3.10;;;2.13;;
18435;SDS011;9346;52.006;4.720;2023-08-21T03:18:04;4.60;;;1.90;;
18435;SDS011;9346;52.006;4.720;2023-08-21T03:20:31;3.70;;;2.03;;
18435;SDS011;9346;52.006;4.720;2023-08-21T03:22:58;3.00;;;1.73;;
18435;SDS011;9346;52.006;4.720;2023-08-21T03:25:27;3.33;;;1.73;;
18435;SDS011;9346;52.006;4.720;2023-08-21T03:27:54;2.83;;;2.00;;
18435;SDS011;9346;52.006;4.720;2023-08-21T03:30:21;4.17;;;1.70;;
18435;SDS011;9346;52.006;4.720;2023-08-21T03:32:48;2.07;;;1.73;;
18435;SDS011;9346;52.006;4.720;2023-08-21T03:35:15;1.77;;;1.67;;
18435;SDS011;9346;52.006;4.720;2023-08-21T03:37:42;2.50;;;1.50;;
18435;SDS011;9346;52.006;4.720;2023-08-21T03:40:09;2.40;;;1.83;;
18435;SDS011;9346;52.006;4.720;2023-08-21T03:42:38;5.43;;;2.10;;
18435;SDS011;9346;52.006;4.720;2023-08-21T03:45:06;2.50;;;2.00;;
18435;SDS011;9346;52.006;4.720;2023-08-21T03:47:35;2.27;;;1.67;;
18435;SDS011;9346;52.006;4.720;2023-08-21T03:50:02;4.37;;;1.80;;
18435;SDS011;9346;52.006;4.720;2023-08-21T03:52:29;2.77;;;2.07;;
18435;SDS011;9346;52.006;4.720;2023-08-21T03:54:55;3.67;;;1.73;;
18435;SDS011;9346;52.006;4.720;2023-08-21T03:57:22;3.27;;;2.10;;
18435;SDS011;9346;52.006;4.720;2023-08-21T03:59:51;5.03;;;1.97;;
18435;SDS011;9346;52.006;4.720;2023-08-21T04:02:18;3.60;;;2.17;;
18435;SDS011;9346;52.006;4.720;2023-08-21T04:04:45;4.40;;;2.10;;
18435;SDS011;9346;52.006;4.720;2023-08-21T04:07:12;2.87;;;1.80;;
18435;SDS011;9346;52.006;4.720;2023-08-21T04:09:39;3.13;;;2.10;;
18435;SDS011;9346;52.006;4.720;2023-08-21T04:12:06;3.43;;;2.40;;
18435;SDS011;9346;52.006;4.720;2023-08-21T04:14:33;2.97;;;2.00;;
18435;SDS011;9346;52.006;4.720;2023-08-21T04:17:02;2.87;;;1.90;;
18435;SDS011;9346;52.006;4.720;2023-08-21T04:19:29;4.23;;;2.10;;
18435;SDS011;9346;52.006;4.720;2023-08-21T04:21:58;2.70;;;2.00;;
18435;SDS011;9346;52.006;4.720;2023-08-21T04:24:25;4.47;;;2.23;;
18435;SDS011;9346;52.006;4.720;2023-08-21T04:26:52;3.80;;;2.30;;
18435;SDS011;9346;52.006;4.720;2023-08-21T04:29:19;3.20;;;2.10;;
18435;SDS011;9346;52.006;4.720;2023-08-21T04:31:46;4.77;;;2.20;;
18435;SDS011;9346;52.006;4.720;2023-08-21T04:34:15;5.43;;;2.13;;
18435;SDS011;9346;52.006;4.720;2023-08-21T04:36:43;2.63;;;1.80;;
18435;SDS011;9346;52.006;4.720;2023-08-21T04:39:10;5.53;;;2.40;;
18435;SDS011;9346;52.006;4.720;2023-08-21T04:41:37;3.57;;;1.90;;
18435;SDS011;9346;52.006;4.720;2023-08-21T04:44:06;2.33;;;1.90;;
18435;SDS011;9346;52.006;4.720;2023-08-21T04:46:33;2.23;;;2.03;;
18435;SDS011;9346;52.006;4.720;2023-08-21T04:49:00;3.40;;;2.30;;
18435;SDS011;9346;52.006;4.720;2023-08-21T04:51:28;3.50;;;2.43;;
18435;SDS011;9346;52.006;4.720;2023-08-21T04:53:55;4.97;;;2.40;;
18435;SDS011;9346;52.006;4.720;2023-08-21T04:56:24;2.53;;;2.33;;
18435;SDS011;9346;52.006;4.720;2023-08-21T04:58:51;2.50;;;2.30;;
18435;SDS011;9346;52.006;4.720;2023-08-21T05:01:18;2.80;;;2.00;;
18435;SDS011;9346;52.006;4.720;2023-08-21T05:03:44;2.40;;;2.10;;
18435;SDS011;9346;52.006;4.720;2023-08-21T05:06:11;5.90;;;2.70;;
18435;SDS011;9346;52.006;4.720;2023-08-21T05:08:40;2.97;;;2.40;;
18435;SDS011;9346;52.006;4.720;2023-08-21T05:11:07;2.60;;;2.27;;
18435;SDS011;9346;52.006;4.720;2023-08-21T05:13:34;5.60;;;2.33;;
18435;SDS011;9346;52.006;4.720;2023-08-21T05:16:01;2.63;;;2.00;;
18435;SDS011;9346;52.006;4.720;2023-08-21T05:18:28;3.57;;;2.37;;
18435;SDS011;9346;52.006;4.720;2023-08-21T05:20:57;3.07;;;2.50;;
18435;SDS011;9346;52.006;4.720;2023-08-21T05:23:24;4.87;;;2.37;;
18435;SDS011;9346;52.006;4.720;2023-08-21T05:25:54;2.53;;;2.13;;
18435;SDS011;9346;52.006;4.720;2023-08-21T05:28:20;2.40;;;2.20;;
18435;SDS011;9346;52.006;4.720;2023-08-21T05:30:48;2.80;;;2.17;;
18435;SDS011;9346;52.006;4.720;2023-08-21T05:33:15;4.10;;;2.17;;
18435;SDS011;9346;52.006;4.720;2023-08-21T05:35:43;3.70;;;1.97;;
18435;SDS011;9346;52.006;4.720;2023-08-21T05:38:10;2.60;;;2.13;;
18435;SDS011;9346;52.006;4.720;2023-08-21T05:40:36;3.27;;;2.30;;
18435;SDS011;9346;52.006;4.720;2023-08-21T05:43:05;2.63;;;2.10;;
18435;SDS011;9346;52.006;4.720;2023-08-21T05:45:32;2.43;;;2.23;;
18435;SDS011;9346;52.006;4.720;2023-08-21T05:47:59;2.23;;;1.67;;
18435;SDS011;9346;52.006;4.720;2023-08-21T05:50:26;3.90;;;2.07;;
18435;SDS011;9346;52.006;4.720;2023-08-21T05:52:53;3.73;;;2.40;;
18435;SDS011;9346;52.006;4.720;2023-08-21T05:55:22;4.60;;;2.40;;
18435;SDS011;9346;52.006;4.720;2023-08-21T05:57:49;4.80;;;2.23;;
18435;SDS011;9346;52.006;4.720;2023-08-21T06:00:19;3.57;;;2.50;;
18435;SDS011;9346;52.006;4.720;2023-08-21T06:02:47;3.70;;;2.50;;
18435;SDS011;9346;52.006;4.720;2023-08-21T06:05:14;5.67;;;2.50;;
18435;SDS011;9346;52.006;4.720;2023-08-21T06:07:41;2.53;;;1.93;;
18435;SDS011;9346;52.006;4.720;2023-08-21T06:10:08;4.60;;;2.40;;
18435;SDS011;9346;52.006;4.720;2023-08-21T06:12:36;4.90;;;2.53;;
18435;SDS011;9346;52.006;4.720;2023-08-21T06:15:03;4.73;;;2.10;;
18435;SDS011;9346;52.006;4.720;2023-08-21T06:17:34;4.20;;;2.30;;
18435;SDS011;9346;52.006;4.720;2023-08-21T06:20:01;2.03;;;1.83;;
18435;SDS011;9346;52.006;4.720;2023-08-21T06:22:30;4.60;;;2.77;;
18435;SDS011;9346;52.006;4.720;2023-08-21T06:24:57;2.70;;;2.27;;
18435;SDS011;9346;52.006;4.720;2023-08-21T06:27:24;2.40;;;1.90;;
18435;SDS011;9346;52.006;4.720;2023-08-21T06:29:51;2.73;;;2.23;;
18435;SDS011;9346;52.006;4.720;2023-08-21T06:32:18;3.07;;;2.43;;
18435;SDS011;9346;52.006;4.720;2023-08-21T06:34:47;4.70;;;2.63;;
18435;SDS011;9346;52.006;4.720;2023-08-21T06:37:14;2.83;;;2.40;;
18435;SDS011;9346;52.006;4.720;2023-08-21T06:39:41;4.77;;;2.77;;
18435;SDS011;9346;52.006;4.720;2023-08-21T06:42:08;3.40;;;2.30;;
18435;SDS011;9346;52.006;4.720;2023-08-21T06:44:35;4.10;;;2.87;;
18435;SDS011;9346;52.006;4.720;2023-08-21T06:47:02;3.17;;;2.80;;
18435;SDS011;9346;52.006;4.720;2023-08-21T06:49:29;4.30;;;2.50;;
18435;SDS011;9346;52.006;4.720;2023-08-21T06:51:57;4.00;;;3.20;;
18435;SDS011;9346;52.006;4.720;2023-08-21T06:54:24;4.43;;;2.63;;
18435;SDS011;9346;52.006;4.720;2023-08-21T06:56:51;3.90;;;2.40;;
18435;SDS011;9346;52.006;4.720;2023-08-21T06:59:19;4.87;;;2.87;;
18435;SDS011;9346;52.006;4.720;2023-08-21T07:01:46;3.30;;;2.30;;
18435;SDS011;9346;52.006;4.720;2023-08-21T07:04:12;5.33;;;3.67;;
18435;SDS011;9346;52.006;4.720;2023-08-21T07:06:40;7.30;;;3.63;;
18435;SDS011;9346;52.006;4.720;2023-08-21T07:09:08;4.90;;;3.00;;
18435;SDS011;9346;52.006;4.720;2023-08-21T07:11:35;7.97;;;3.43;;
18435;SDS011;9346;52.006;4.720;2023-08-21T07:14:02;6.77;;;3.40;;
18435;SDS011;9346;52.006;4.720;2023-08-21T07:16:29;4.57;;;3.33;;
18435;SDS011;9346;52.006;4.720;2023-08-21T07:18:56;3.80;;;3.00;;
18435;SDS011;9346;52.006;4.720;2023-08-21T07:21:23;5.17;;;2.60;;
18435;SDS011;9346;52.006;4.720;2023-08-21T07:23:50;4.50;;;2.97;;
18435;SDS011;9346;52.006;4.720;2023-08-21T07:26:19;5.50;;;2.80;;
18435;SDS011;9346;52.006;4.720;2023-08-21T07:28:46;7.93;;;2.83;;
18435;SDS011;9346;52.006;4.720;2023-08-21T07:31:13;4.87;;;2.97;;
18435;SDS011;9346;52.006;4.720;2023-08-21T07:33:40;7.33;;;3.23;;
18435;SDS011;9346;52.006;4.720;2023-08-21T07:36:07;7.00;;;3.13;;
18435;SDS011;9346;52.006;4.720;2023-08-21T07:38:34;7.60;;;2.87;;
18435;SDS011;9346;52.006;4.720;2023-08-21T07:41:01;7.00;;;3.63;;
18435;SDS011;9346;52.006;4.720;2023-08-21T07:43:31;8.73;;;3.10;;
18435;SDS011;9346;52.006;4.720;2023-08-21T07:45:58;6.27;;;3.30;;
18435;SDS011;9346;52.006;4.720;2023-08-21T07:48:28;6.73;;;3.90;;
18435;SDS011;9346;52.006;4.720;2023-08-21T07:50:55;8.13;;;3.67;;
18435;SDS011;9346;52.006;4.720;2023-08-21T07:53:23;6.07;;;3.43;;
18435;SDS011;9346;52.006;4.720;2023-08-21T07:55:50;12.63;;;4.20;;
18435;SDS011;9346;52.006;4.720;2023-08-21T07:58:17;6.20;;;3.40;;
18435;SDS011;9346;52.006;4.720;2023-08-21T08:00:46;5.37;;;2.77;;
18435;SDS011;9346;52.006;4.720;2023-08-21T08:03:14;7.07;;;2.87;;
18435;SDS011;9346;52.006;4.720;2023-08-21T08:05:40;4.33;;;2.43;;
18435;SDS011;9346;52.006;4.720;2023-08-21T08:08:08;5.03;;;2.70;;
18435;SDS011;9346;52.006;4.720;2023-08-21T08:10:36;3.70;;;2.40;;
18435;SDS011;9346;52.006;4.720;2023-08-21T08:13:04;6.17;;;2.63;;
18435;SDS011;9346;52.006;4.720;2023-08-21T08:15:31;8.10;;;2.70;;
18435;SDS011;9346;52.006;4.720;2023-08-21T08:18:00;6.73;;;3.37;;
18435;SDS011;9346;52.006;4.720;2023-08-21T08:20:28;8.63;;;3.17;;
18435;SDS011;9346;52.006;4.720;2023-08-21T08:22:55;5.03;;;2.30;;
18435;SDS011;9346;52.006;4.720;2023-08-21T08:25:22;5.37;;;2.87;;
18435;SDS011;9346;52.006;4.720;2023-08-21T08:27:51;8.63;;;2.80;;
18435;SDS011;9346;52.006;4.720;2023-08-21T08:30:18;9.53;;;2.83;;
18435;SDS011;9346;52.006;4.720;2023-08-21T08:32:45;9.13;;;2.80;;
18435;SDS011;9346;52.006;4.720;2023-08-21T08:35:14;3.50;;;2.50;;
18435;SDS011;9346;52.006;4.720;2023-08-21T08:37:41;5.23;;;2.47;;
18435;SDS011;9346;52.006;4.720;2023-08-21T08:40:10;8.17;;;3.20;;
18435;SDS011;9346;52.006;4.720;2023-08-21T08:42:38;7.70;;;2.73;;
18435;SDS011;9346;52.006;4.720;2023-08-21T08:45:05;4.90;;;2.60;;
18435;SDS011;9346;52.006;4.720;2023-08-21T08:47:33;3.40;;;2.40;;
18435;SDS011;9346;52.006;4.720;2023-08-21T08:50:01;6.37;;;2.83;;
18435;SDS011;9346;52.006;4.720;2023-08-21T08:52:34;3.97;;;2.40;;
18435;SDS011;9346;52.006;4.720;2023-08-21T08:55:02;6.40;;;2.40;;
18435;SDS011;9346;52.006;4.720;2023-08-21T08:57:31;3.80;;;1.87;;
18435;SDS011;9346;52.006;4.720;2023-08-21T08:59:58;4.27;;;2.10;;
18435;SDS011;9346;52.006;4.720;2023-08-21T09:02:25;3.63;;;2.40;;
18435;SDS011;9346;52.006;4.720;2023-08-21T09:04:52;3.93;;;2.03;;
18435;SDS011;9346;52.006;4.720;2023-08-21T09:07:20;2.93;;;2.00;;
18435;SDS011;9346;52.006;4.720;2023-08-21T09:09:49;5.17;;;2.40;;
18435;SDS011;9346;52.006;4.720;2023-08-21T09:12:18;2.70;;;2.20;;
18435;SDS011;9346;52.006;4.720;2023-08-21T09:14:45;2.63;;;1.87;;
18435;SDS011;9346;52.006;4.720;2023-08-21T09:17:13;2.40;;;1.57;;
18435;SDS011;9346;52.006;4.720;2023-08-21T09:19:41;2.57;;;1.70;;
18435;SDS011;9346;52.006;4.720;2023-08-21T09:22:09;1.60;;;1.20;;
18435;SDS011;9346;52.006;4.720;2023-08-21T09:24:38;3.27;;;1.97;;
18435;SDS011;9346;52.006;4.720;2023-08-21T09:27:15;4.67;;;1.83;;
18435;SDS011;9346;52.006;4.720;2023-08-21T09:29:43;5.97;;;1.87;;
18435;SDS011;9346;52.006;4.720;2023-08-21T09:32:13;2.17;;;1.30;;
18435;SDS011;9346;52.006;4.720;2023-08-21T09:34:41;3.67;;;1.63;;
18435;SDS011;9346;52.006;4.720;2023-08-21T09:37:08;4.00;;;1.90;;
18435;SDS011;9346;52.006;4.720;2023-08-21T09:39:36;2.00;;;1.53;;
18435;SDS011;9346;52.006;4.720;2023-08-21T09:42:07;2.20;;;1.70;;
18435;SDS011;9346;52.006;4.720;2023-08-21T09:44:36;3.77;;;1.67;;
18435;SDS011;9346;52.006;4.720;2023-08-21T09:47:04;4.90;;;1.37;;
18435;SDS011;9346;52.006;4.720;2023-08-21T09:49:36;2.80;;;1.40;;
18435;SDS011;9346;52.006;4.720;2023-08-21T09:52:04;2.57;;;1.20;;
18435;SDS011;9346;52.006;4.720;2023-08-21T09:54:33;5.60;;;1.17;;
18435;SDS011;9346;52.006;4.720;2023-08-21T09:57:00;1.47;;;1.07;;
18435;SDS011;9346;52.006;4.720;2023-08-21T09:59:29;1.87;;;1.00;;
18435;SDS011;9346;52.006;4.720;2023-08-21T10:01:58;2.30;;;1.10;;
18435;SDS011;9346;52.006;4.720;2023-08-21T10:04:26;3.47;;;1.37;;
18435;SDS011;9346;52.006;4.720;2023-08-21T10:06:54;1.70;;;1.30;;
18435;SDS011;9346;52.006;4.720;2023-08-21T10:09:23;2.00;;;1.40;;
18435;SDS011;9346;52.006;4.720;2023-08-21T10:11:51;1.93;;;1.00;;
18435;SDS011;9346;52.006;4.720;2023-08-21T10:14:20;5.57;;;1.50;;
18435;SDS011;9346;52.006;4.720;2023-08-21T10:16:49;1.67;;;1.10;;
18435;SDS011;9346;52.006;4.720;2023-08-21T10:19:19;1.37;;;1.00;;
18435;SDS011;9346;52.006;4.720;2023-08-21T10:21:47;1.77;;;0.80;;
18435;SDS011;9346;52.006;4.720;2023-08-21T10:24:25;3.13;;;1.27;;
18435;SDS011;9346;52.006;4.720;2023-08-21T10:26:54;2.60;;;1.30;;
18435;SDS011;9346;52.006;4.720;2023-08-21T10:29:24;1.60;;;0.80;;
18435;SDS011;9346;52.006;4.720;2023-08-21T10:31:58;2.03;;;1.00;;
18435;SDS011;9346;52.006;4.720;2023-08-21T10:34:32;1.80;;;0.80;;
18435;SDS011;9346;52.006;4.720;2023-08-21T10:39:37;3.67;;;0.70;;
18435;SDS011;9346;52.006;4.720;2023-08-21T10:42:08;2.80;;;0.80;;
18435;SDS011;9346;52.006;4.720;2023-08-21T10:44:48;1.57;;;0.70;;
18435;SDS011;9346;52.006;4.720;2023-08-21T10:47:17;1.47;;;0.70;;
18435;SDS011;9346;52.006;4.720;2023-08-21T10:49:49;1.73;;;0.97;;
18435;SDS011;9346;52.006;4.720;2023-08-21T10:52:20;1.43;;;0.90;;
18435;SDS011;9346;52.006;4.720;2023-08-21T10:54:49;3.10;;;1.10;;
18435;SDS011;9346;52.006;4.720;2023-08-21T10:57:17;1.13;;;0.80;;
18435;SDS011;9346;52.006;4.720;2023-08-21T10:59:54;3.10;;;0.73;;
18435;SDS011;9346;52.006;4.720;2023-08-21T11:02:22;3.03;;;0.87;;
18435;SDS011;9346;52.006;4.720;2023-08-21T11:04:51;3.83;;;0.77;;
18435;SDS011;9346;52.006;4.720;2023-08-21T11:07:18;2.33;;;0.90;;
18435;SDS011;9346;52.006;4.720;2023-08-21T11:09:46;2.87;;;0.67;;
18435;SDS011;9346;52.006;4.720;2023-08-21T11:12:14;1.63;;;0.70;;
18435;SDS011;9346;52.006;4.720;2023-08-21T11:14:42;1.47;;;0.67;;
18435;SDS011;9346;52.006;4.720;2023-08-21T11:17:10;2.37;;;0.70;;
18435;SDS011;9346;52.006;4.720;2023-08-21T11:23:02;1.70;;;0.70;;
18435;SDS011;9346;52.006;4.720;2023-08-21T11:25:31;2.90;;;0.90;;
18435;SDS011;9346;52.006;4.720;2023-08-21T11:27:59;1.83;;;0.90;;
18435;SDS011;9346;52.006;4.720;2023-08-21T11:30:28;2.17;;;0.77;;
18435;SDS011;9346;52.006;4.720;2023-08-21T11:33:09;1.03;;;0.60;;
18435;SDS011;9346;52.006;4.720;2023-08-21T11:35:39;0.80;;;0.53;;
18435;SDS011;9346;52.006;4.720;2023-08-21T11:38:12;0.67;;;0.67;;
18435;SDS011;9346;52.006;4.720;2023-08-21T11:40:42;0.67;;;0.67;;
18435;SDS011;9346;52.006;4.720;2023-08-21T11:43:09;1.98;;;0.85;;
18435;SDS011;9346;52.006;4.720;2023-08-21T11:45:37;0.97;;;0.80;;
18435;SDS011;9346;52.006;4.720;2023-08-21T11:48:04;1.40;;;1.00;;
18435;SDS011;9346;52.006;4.720;2023-08-21T11:50:33;1.90;;;0.67;;
18435;SDS011;9346;52.006;4.720;2023-08-21T11:53:00;2.47;;;0.90;;
18435;SDS011;9346;52.006;4.720;2023-08-21T11:55:32;0.80;;;0.70;;
18435;SDS011;9346;52.006;4.720;2023-08-21T11:58:03;2.37;;;1.07;;
18435;SDS011;9346;52.006;4.720;2023-08-21T12:00:30;1.83;;;1.00;;
18435;SDS011;9346;52.006;4.720;2023-08-21T12:03:00;1.00;;;0.83;;
18435;SDS011;9346;52.006;4.720;2023-08-21T12:05:28;1.50;;;0.60;;
18435;SDS011;9346;52.006;4.720;2023-08-21T12:07:55;1.52;;;0.70;;
18435;SDS011;9346;52.006;4.720;2023-08-21T12:10:23;1.77;;;1.00;;
18435;SDS011;9346;52.006;4.720;2023-08-21T12:12:52;1.83;;;0.90;;
18435;SDS011;9346;52.006;4.720;2023-08-21T12:15:20;2.33;;;0.75;;
18435;SDS011;9346;52.006;4.720;2023-08-21T12:17:47;0.57;;;0.57;;
18435;SDS011;9346;52.006;4.720;2023-08-21T12:20:14;1.42;;;0.65;;
18435;SDS011;9346;52.006;4.720;2023-08-21T12:22:41;2.05;;;0.80;;
18435;SDS011;9346;52.006;4.720;2023-08-21T12:25:08;1.95;;;0.95;;
18435;SDS011;9346;52.006;4.720;2023-08-21T12:27:36;0.93;;;0.50;;
18435;SDS011;9346;52.006;4.720;2023-08-21T12:30:06;2.13;;;0.70;;
18435;SDS011;9346;52.006;4.720;2023-08-21T12:32:33;0.45;;;0.40;;
18435;SDS011;9346;52.006;4.720;2023-08-21T12:35:00;1.00;;;0.70;;
18435;SDS011;9346;52.006;4.720;2023-08-21T12:37:29;0.47;;;0.40;;
18435;SDS011;9346;52.006;4.720;2023-08-21T12:39:56;1.33;;;0.60;;
18435;SDS011;9346;52.006;4.720;2023-08-21T12:42:23;0.60;;;0.60;;
18435;SDS011;9346;52.006;4.720;2023-08-21T12:44:50;2.33;;;0.75;;
18435;SDS011;9346;52.006;4.720;2023-08-21T12:47:18;1.52;;;0.90;;
18435;SDS011;9346;52.006;4.720;2023-08-21T12:49:45;0.60;;;0.50;;
18435;SDS011;9346;52.006;4.720;2023-08-21T12:52:13;0.50;;;0.50;;
18435;SDS011;9346;52.006;4.720;2023-08-21T12:54:40;0.75;;;0.55;;
18435;SDS011;9346;52.006;4.720;2023-08-21T12:57:07;2.33;;;0.60;;
18435;SDS011;9346;52.006;4.720;2023-08-21T12:59:36;1.45;;;0.60;;
18435;SDS011;9346;52.006;4.720;2023-08-21T13:02:03;2.35;;;0.70;;
18435;SDS011;9346;52.006;4.720;2023-08-21T13:04:32;1.83;;;0.98;;
18435;SDS011;9346;52.006;4.720;2023-08-21T13:06:59;0.50;;;0.50;;
18435;SDS011;9346;52.006;4.720;2023-08-21T13:09:26;0.60;;;0.60;;
18435;SDS011;9346;52.006;4.720;2023-08-21T13:11:53;2.25;;;0.60;;
18435;SDS011;9346;52.006;4.720;2023-08-21T13:14:21;0.40;;;0.40;;
18435;SDS011;9346;52.006;4.720;2023-08-21T13:16:48;1.45;;;0.70;;
18435;SDS011;9346;52.006;4.720;2023-08-21T13:19:15;0.63;;;0.57;;
18435;SDS011;9346;52.006;4.720;2023-08-21T13:21:43;2.25;;;0.90;;
18435;SDS011;9346;52.006;4.720;2023-08-21T13:24:10;0.65;;;0.60;;
18435;SDS011;9346;52.006;4.720;2023-08-21T13:26:37;0.95;;;0.70;;
18435;SDS011;9346;52.006;4.720;2023-08-21T13:29:04;2.03;;;0.98;;
18435;SDS011;9346;52.006;4.720;2023-08-21T13:31:32;0.80;;;0.80;;
18435;SDS011;9346;52.006;4.720;2023-08-21T13:34:01;1.67;;;0.70;;
18435;SDS011;9346;52.006;4.720;2023-08-21T13:36:29;1.77;;;0.90;;
18435;SDS011;9346;52.006;4.720;2023-08-21T13:38:57;0.57;;;0.55;;
18435;SDS011;9346;52.006;4.720;2023-08-21T13:41:24;1.25;;;0.65;;
18435;SDS011;9346;52.006;4.720;2023-08-21T13:43:51;1.85;;;0.93;;
18435;SDS011;9346;52.006;4.720;2023-08-21T13:46:19;4.25;;;1.00;;
18435;SDS011;9346;52.006;4.720;2023-08-21T13:48:46;2.92;;;0.80;;
18435;SDS011;9346;52.006;4.720;2023-08-21T13:51:13;2.75;;;1.05;;
18435;SDS011;9346;52.006;4.720;2023-08-21T13:53:40;1.80;;;0.95;;
18435;SDS011;9346;52.006;4.720;2023-08-21T13:56:08;1.83;;;0.60;;
18435;SDS011;9346;52.006;4.720;2023-08-21T13:58:35;0.70;;;0.70;;
18435;SDS011;9346;52.006;4.720;2023-08-21T14:01:02;1.75;;;0.82;;
18435;SDS011;9346;52.006;4.720;2023-08-21T14:03:29;1.40;;;0.90;;
18435;SDS011;9346;52.006;4.720;2023-08-21T14:05:56;1.80;;;0.77;;
18435;SDS011;9346;52.006;4.720;2023-08-21T14:08:23;0.60;;;0.50;;
18435;SDS011;9346;52.006;4.720;2023-08-21T14:10:50;1.38;;;0.82;;
18435;SDS011;9346;52.006;4.720;2023-08-21T14:13:18;0.98;;;0.70;;
18435;SDS011;9346;52.006;4.720;2023-08-21T14:15:45;4.85;;;0.90;;
18435;SDS011;9346;52.006;4.720;2023-08-21T14:18:12;1.15;;;0.90;;
18435;SDS011;9346;52.006;4.720;2023-08-21T14:20:39;2.85;;;1.05;;
18435;SDS011;9346;52.006;4.720;2023-08-21T14:23:05;1.85;;;0.90;;
18435;SDS011;9346;52.006;4.720;2023-08-21T14:25:32;1.83;;;0.90;;
18435;SDS011;9346;52.006;4.720;2023-08-21T14:27:59;1.25;;;0.98;;
18435;SDS011;9346;52.006;4.720;2023-08-21T14:30:29;1.73;;;0.80;;
18435;SDS011;9346;52.006;4.720;2023-08-21T14:32:56;2.20;;;1.25;;
18435;SDS011;9346;52.006;4.720;2023-08-21T14:35:23;1.73;;;1.05;;
18435;SDS011;9346;52.006;4.720;2023-08-21T14:37:50;1.77;;;0.93;;
18435;SDS011;9346;52.006;4.720;2023-08-21T14:40:17;0.80;;;0.70;;
18435;SDS011;9346;52.006;4.720;2023-08-21T14:42:43;1.65;;;0.90;;
18435;SDS011;9346;52.006;4.720;2023-08-21T14:45:10;2.50;;;1.00;;
18435;SDS011;9346;52.006;4.720;2023-08-21T14:47:39;1.45;;;0.85;;
18435;SDS011;9346;52.006;4.720;2023-08-21T14:50:07;0.80;;;0.80;;
18435;SDS011;9346;52.006;4.720;2023-08-21T14:52:34;1.65;;;0.82;;
18435;SDS011;9346;52.006;4.720;2023-08-21T14:55:01;1.48;;;0.90;;
18435;SDS011;9346;52.006;4.720;2023-08-21T14:57:28;1.63;;;0.85;;
18435;SDS011;9346;52.006;4.720;2023-08-21T14:59:55;1.00;;;0.82;;
18435;SDS011;9346;52.006;4.720;2023-08-21T15:02:22;2.65;;;0.90;;
18435;SDS011;9346;52.006;4.720;2023-08-21T15:04:51;1.25;;;1.15;;
18435;SDS011;9346;52.006;4.720;2023-08-21T15:07:18;2.22;;;1.00;;
18435;SDS011;9346;52.006;4.720;2023-08-21T15:09:44;1.75;;;0.93;;